Time;durP1;ratioP1;P1;durP2;ratioP2;P2;SDS_P1;SDS_P2;PMS_P1;PMS_P2;Temp;Humidity;BMP_temperature;BMP_pressure;BME280_temperature;BME280_humidity;BME280_pressure;Samples;Min_cycle;Max_cycle;Signal;HPM_P1;HPM_P2
2023/12/06 00:01:04;;;;;;;0.30;0.30;;;;;;;6.18;86.53;94490.53;5109593;28;20181;-70
2023/12/06 00:03:33;;;;;;;1.80;1.27;;;;;;;5.91;86.56;94472.09;5109382;28;20265;-68
2023/12/06 00:05:58;;;;;;;0.50;0.50;;;;;;;5.97;86.90;94486.97;5109515;28;20532;-68
2023/12/06 00:08:23;;;;;;;0.47;0.47;;;;;;;6.04;87.01;94492.28;5109385;28;20177;-69
2023/12/06 00:10:49;;;;;;;0.40;0.40;;;;;;;6.00;86.75;94491.84;5108946;28;20714;-68
2023/12/06 00:13:14;;;;;;;0.50;0.50;;;;;;;5.92;87.46;94488.56;5109515;28;20650;-68
2023/12/06 00:15:40;;;;;;;0.70;0.70;;;;;;;5.80;87.68;94485.63;5109061;28;20671;-68
2023/12/06 00:18:05;;;;;;;0.60;0.60;;;;;;;5.85;88.03;94493.72;5109456;28;20191;-68
2023/12/06 00:20:31;;;;;;;0.40;0.40;;;;;;;5.86;87.81;94482.28;5092231;28;20207;-68
2023/12/06 00:22:56;;;;;;;0.40;0.40;;;;;;;5.89;88.16;94488.94;5109257;28;20216;-68
2023/12/06 00:25:22;;;;;;;2.10;1.93;;;;;;;5.86;88.38;94489.31;5108341;28;20965;-68
2023/12/06 00:27:48;;;;;;;0.30;0.30;;;;;;;6.04;87.79;94473.97;5109233;28;20230;-68
2023/12/06 00:30:14;;;;;;;0.50;0.50;;;;;;;6.11;87.05;94472.22;5109210;28;20273;-70
2023/12/06 00:32:39;;;;;;;2.20;0.93;;;;;;;6.08;87.44;94477.81;5109262;28;20261;-70
2023/12/06 00:35:07;;;;;;;0.40;0.40;;;;;;;6.08;87.39;94462.13;5109361;28;20192;-70
2023/12/06 00:37:33;;;;;;;0.40;0.40;;;;;;;6.11;87.30;94474.81;5109409;28;20189;-70
2023/12/06 00:39:58;;;;;;;0.47;0.47;;;;;;;6.11;87.12;94461.75;5109407;28;20184;-69
2023/12/06 00:42:24;;;;;;;2.83;1.07;;;;;;;6.00;87.32;94464.91;5109359;28;20188;-69
2023/12/06 00:44:49;;;;;;;0.40;0.40;;;;;;;6.01;87.88;94466.53;5109029;28;20181;-68
2023/12/06 00:47:14;;;;;;;0.40;0.40;;;;;;;5.99;88.13;94463.28;5110224;28;20197;-69
2023/12/06 00:49:40;;;;;;;0.40;0.40;;;;;;;6.07;88.18;94461.31;5113268;28;20689;-69
2023/12/06 00:52:05;;;;;;;0.40;0.40;;;;;;;6.07;87.49;94468.34;5113099;28;20212;-69
2023/12/06 00:54:31;;;;;;;0.50;0.50;;;;;;;6.08;87.45;94456.91;5112963;28;20648;-69
2023/12/06 00:56:56;;;;;;;0.40;0.40;;;;;;;6.13;87.41;94454.53;5113047;28;20664;-70
2023/12/06 00:59:22;;;;;;;0.40;0.40;;;;;;;6.19;87.22;94447.72;5113016;28;20566;-69
2023/12/06 01:01:47;;;;;;;0.40;0.40;;;;;;;6.16;86.93;94438.47;5112941;28;20169;-69
2023/12/06 01:04:13;;;;;;;0.50;0.50;;;;;;;6.27;86.73;94450.97;5113286;28;20188;-70
2023/12/06 01:06:38;;;;;;;0.40;0.40;;;;;;;6.32;86.28;94447.78;5112884;28;20180;-69
2023/12/06 01:09:06;;;;;;;0.50;0.50;;;;;;;6.27;86.11;94452.78;5112226;28;20223;-70
2023/12/06 01:11:35;;;;;;;0.40;0.40;;;;;;;6.24;86.27;94445.31;5110625;28;20603;-70
2023/12/06 01:14:00;;;;;;;0.40;0.40;;;;;;;6.30;86.34;94450.59;5112007;28;20189;-70
2023/12/06 01:16:26;;;;;;;0.47;0.47;;;;;;;6.31;85.86;94449.56;5112316;27;20192;-70
2023/12/06 01:18:51;;;;;;;0.50;0.50;;;;;;;6.36;86.29;94444.59;5112383;28;20230;-70
2023/12/06 01:21:17;;;;;;;0.70;0.70;;;;;;;6.31;85.87;94431.28;5112520;28;20169;-70
2023/12/06 01:23:42;;;;;;;0.40;0.40;;;;;;;6.25;85.89;94415.56;5112463;27;20573;-70
2023/12/06 01:26:08;;;;;;;0.40;0.40;;;;;;;6.25;85.81;94413.78;5112627;28;20181;-69
2023/12/06 01:28:33;;;;;;;0.40;0.40;;;;;;;6.32;85.85;94422.44;5112300;28;20237;-70
2023/12/06 01:30:58;;;;;;;0.50;0.50;;;;;;;6.23;85.49;94418.38;5112311;28;20192;-69
2023/12/06 01:33:24;;;;;;;0.40;0.40;;;;;;;6.22;85.84;94416.00;5112366;28;20673;-70
2023/12/06 01:35:49;;;;;;;0.50;0.50;;;;;;;6.12;86.09;94416.34;5112285;28;20227;-69
2023/12/06 01:38:15;;;;;;;0.40;0.40;;;;;;;6.09;86.24;94411.50;5112400;28;20177;-69
2023/12/06 01:40:41;;;;;;;0.37;0.37;;;;;;;6.00;86.25;94400.41;5112432;28;20233;-69
2023/12/06 01:43:07;;;;;;;0.40;0.40;;;;;;;6.07;86.36;94408.25;5112210;28;20551;-69
2023/12/06 01:45:32;;;;;;;0.70;0.70;;;;;;;5.86;86.67;94390.88;5112337;27;20275;-69
2023/12/06 01:47:58;;;;;;;0.50;0.50;;;;;;;5.95;86.83;94396.78;5112424;28;20318;-69
2023/12/06 01:50:25;;;;;;;0.40;0.40;;;;;;;6.02;87.18;94397.59;5111974;27;20204;-69
2023/12/06 01:52:51;;;;;;;5.50;3.10;;;;;;;5.97;86.72;94390.34;5112000;28;20188;-70
2023/12/06 01:55:17;;;;;;;0.50;0.50;;;;;;;6.04;86.63;94393.00;5111954;28;20179;-69
2023/12/06 01:57:43;;;;;;;0.60;0.60;;;;;;;6.00;86.19;94384.72;5112033;27;20169;-69
2023/12/06 02:00:09;;;;;;;0.63;0.63;;;;;;;6.03;85.90;94386.16;5111235;28;20184;-68
2023/12/06 02:02:35;;;;;;;0.80;0.80;;;;;;;6.02;86.44;94387.16;5111701;28;20177;-68
2023/12/06 02:05:01;;;;;;;0.90;0.90;;;;;;;6.02;85.83;94377.50;5111779;28;20634;-68
2023/12/06 02:07:27;;;;;;;2.87;2.67;;;;;;;5.99;85.55;94377.09;5111734;28;20234;-69
2023/12/06 02:09:53;;;;;;;0.93;0.77;;;;;;;5.89;85.63;94360.97;5111212;28;20220;-69
2023/12/06 02:12:18;;;;;;;0.40;0.40;;;;;;;6.06;85.76;94386.56;5111636;28;20196;-68
2023/12/06 02:14:44;;;;;;;0.40;0.40;;;;;;;6.14;85.88;94376.97;5110144;28;20169;-68
2023/12/06 02:17:11;;;;;;;0.50;0.50;;;;;;;6.21;85.23;94381.22;5111435;27;20185;-68
2023/12/06 02:19:38;;;;;;;0.70;0.70;;;;;;;6.28;84.93;94373.38;5111540;28;20169;-68
2023/12/06 02:22:04;;;;;;;0.40;0.40;;;;;;;6.23;85.32;94376.56;5111297;28;20525;-68
2023/12/06 02:24:30;;;;;;;0.57;0.57;;;;;;;6.13;85.11;94364.91;5111440;28;20230;-68
2023/12/06 02:26:56;;;;;;;0.40;0.40;;;;;;;6.00;85.50;94345.53;5111491;28;20176;-68
2023/12/06 02:29:25;;;;;;;0.40;0.40;;;;;;;6.26;85.39;94370.97;5111314;28;20230;-68
2023/12/06 02:31:51;;;;;;;0.50;0.50;;;;;;;6.28;85.21;94374.19;5092032;28;20246;-68
2023/12/06 02:34:23;;;;;;;3.10;0.77;;;;;;;6.29;85.29;94370.59;5090946;28;20184;-68
2023/12/06 02:36:52;;;;;;;0.40;0.40;;;;;;;6.16;85.32;94360.06;5090774;28;20174;-68
2023/12/06 02:39:17;;;;;;;0.40;0.40;;;;;;;6.27;85.40;94366.53;5090849;28;20182;-68
2023/12/06 02:41:44;;;;;;;0.40;0.40;;;;;;;6.23;85.40;94350.44;5090825;28;20223;-68
2023/12/06 02:44:09;;;;;;;0.40;0.40;;;;;;;6.40;85.21;94372.59;5090797;28;20638;-68
2023/12/06 02:46:36;;;;;;;1.27;1.17;;;;;;;6.16;85.54;94360.06;5090792;28;20205;-68
2023/12/06 02:49:02;;;;;;;0.30;0.30;;;;;;;6.05;86.31;94363.25;5090718;28;20165;-68
2023/12/06 02:51:28;;;;;;;0.70;0.70;;;;;;;5.99;86.21;94343.94;5090802;28;20684;-68
2023/12/06 02:53:53;;;;;;;0.57;0.57;;;;;;;5.76;86.65;94330.34;5090661;28;20184;-68
2023/12/06 02:56:19;;;;;;;0.40;0.40;;;;;;;6.00;86.71;94355.19;5089463;28;20265;-68
2023/12/06 02:58:44;;;;;;;0.40;0.40;;;;;;;6.06;86.49;94346.56;5090728;28;20601;-68
2023/12/06 03:01:10;;;;;;;2.80;1.40;;;;;;;6.12;85.72;94337.16;5090390;28;20172;-68
2023/12/06 03:03:35;;;;;;;0.40;0.40;;;;;;;6.25;85.72;94350.25;5090206;28;20646;-67
2023/12/06 03:06:01;;;;;;;0.50;0.50;;;;;;;6.26;85.35;94347.44;5090365;28;20185;-67
2023/12/06 03:08:26;;;;;;;0.50;0.50;;;;;;;6.18;85.53;94338.97;5090186;28;20170;-68
2023/12/06 03:10:52;;;;;;;0.50;0.50;;;;;;;6.11;85.99;94344.19;5088830;28;20213;-68
2023/12/06 03:13:18;;;;;;;0.40;0.40;;;;;;;6.09;85.85;94346.19;5090072;28;20246;-68
2023/12/06 03:15:43;;;;;;;1.80;0.93;;;;;;;6.11;86.11;94338.97;5090043;28;20250;-68
2023/12/06 03:18:09;;;;;;;0.80;0.80;;;;;;;6.11;85.62;94323.28;5090020;28;20166;-69
2023/12/06 03:20:34;;;;;;;0.40;0.40;;;;;;;6.21;85.49;94326.34;5089895;28;20662;-69
2023/12/06 03:23:00;;;;;;;0.60;0.60;;;;;;;6.24;85.21;94331.16;5089863;28;20264;-69
2023/12/06 03:25:25;;;;;;;0.50;0.50;;;;;;;6.20;85.70;94322.09;5089812;28;20170;-69
2023/12/06 03:27:51;;;;;;;1.53;1.43;;;;;;;6.20;85.64;94332.56;5089957;28;20547;-69
2023/12/06 03:30:16;;;;;;;1.17;1.13;;;;;;;6.04;85.90;94325.06;5089750;28;20220;-69
2023/12/06 03:32:43;;;;;;;0.40;0.40;;;;;;;6.04;86.42;94320.66;5089682;28;20323;-69
2023/12/06 03:35:08;;;;;;;2.17;1.97;;;;;;;5.92;86.41;94321.41;5089715;28;20702;-69
2023/12/06 03:37:34;;;;;;;0.80;0.77;;;;;;;5.82;87.29;94326.94;5089650;28;20166;-69
2023/12/06 03:39:59;;;;;;;0.87;0.87;;;;;;;5.84;87.39;94327.56;5089418;28;20211;-69
2023/12/06 03:42:25;;;;;;;4.00;3.70;;;;;;;5.83;87.28;94328.56;5089818;28;20280;-68
2023/12/06 03:44:50;;;;;;;0.63;0.63;;;;;;;5.71;88.00;94337.16;5089175;28;20184;-68
2023/12/06 03:47:15;;;;;;;0.50;0.50;;;;;;;5.74;88.23;94334.97;5089518;28;20184;-69
2023/12/06 03:49:41;;;;;;;1.07;1.03;;;;;;;5.87;87.70;94336.84;5088205;28;20243;-68
2023/12/06 03:52:08;;;;;;;0.87;0.87;;;;;;;5.81;87.96;94337.59;5089317;28;20250;-69
2023/12/06 03:54:33;;;;;;;0.40;0.40;;;;;;;5.91;87.58;94328.44;5089522;28;20170;-69
2023/12/06 03:56:59;;;;;;;1.07;1.00;;;;;;;5.89;87.65;94334.84;5089541;28;20242;-68
2023/12/06 03:59:25;;;;;;;0.50;0.50;;;;;;;5.92;87.28;94309.16;5089276;28;20678;-69
2023/12/06 04:01:51;;;;;;;0.40;0.40;;;;;;;6.12;86.64;94326.69;5088774;28;20249;-69
2023/12/06 04:04:16;;;;;;;0.50;0.50;;;;;;;6.25;85.87;94331.94;5089244;28;20174;-68
2023/12/06 04:06:41;;;;;;;3.50;1.50;;;;;;;6.24;85.20;94325.13;5089653;28;20174;-69
2023/12/06 04:09:07;;;;;;;0.70;0.70;;;;;;;6.19;85.60;94322.28;5087538;28;20230;-69
2023/12/06 04:11:33;;;;;;;0.40;0.40;;;;;;;6.19;85.87;94299.59;5088426;28;20330;-69
2023/12/06 04:13:58;;;;;;;0.40;0.40;;;;;;;6.29;85.51;94314.88;5106457;28;20176;-68
2023/12/06 04:16:24;;;;;;;2.63;2.43;;;;;;;6.09;85.83;94306.19;5109076;28;20176;-69
2023/12/06 04:18:49;;;;;;;0.40;0.40;;;;;;;6.24;86.21;94323.31;5108913;28;20180;-68
2023/12/06 04:21:16;;;;;;;0.53;0.53;;;;;;;6.28;85.89;94318.50;5109171;28;21200;-69
2023/12/06 04:23:42;;;;;;;0.50;0.50;;;;;;;6.31;85.29;94321.50;5108873;28;20269;-68
2023/12/06 04:26:07;;;;;;;0.60;0.60;;;;;;;6.28;85.82;94321.94;5109242;28;20200;-69
2023/12/06 04:28:33;;;;;;;0.50;0.50;;;;;;;6.32;85.52;94317.09;5095810;28;20667;-68
2023/12/06 04:30:58;;;;;;;0.97;0.97;;;;;;;6.40;85.22;94322.94;5088924;28;20670;-68
2023/12/06 04:33:23;;;;;;;0.60;0.60;;;;;;;6.38;85.60;94326.78;5089133;28;20611;-69
2023/12/06 04:35:49;;;;;;;0.40;0.40;;;;;;;6.40;85.22;94319.53;5088875;28;20176;-69
2023/12/06 04:38:14;;;;;;;0.70;0.70;;;;;;;6.46;84.91;94337.03;5088791;28;20215;-68
2023/12/06 04:40:40;;;;;;;0.87;0.87;;;;;;;6.26;85.52;94308.25;5089261;28;20716;-68
2023/12/06 04:43:05;;;;;;;2.80;1.20;;;;;;;6.38;85.44;94332.00;5088764;28;20197;-68
2023/12/06 04:45:32;;;;;;;0.43;0.43;;;;;;;6.32;85.86;94330.16;5088930;28;20177;-68
2023/12/06 04:47:57;;;;;;;0.50;0.50;;;;;;;6.29;86.40;94325.34;5089119;28;20257;-70
2023/12/06 04:50:23;;;;;;;0.40;0.40;;;;;;;6.30;86.63;94319.94;5089100;28;20670;-69
2023/12/06 04:52:48;;;;;;;0.93;0.83;;;;;;;6.25;86.76;94322.31;5089108;28;20174;-69
2023/12/06 04:55:14;;;;;;;0.50;0.50;;;;;;;6.23;87.18;94319.09;5089328;28;20172;-69
2023/12/06 04:57:39;;;;;;;0.40;0.40;;;;;;;6.25;87.29;94311.84;5089374;28;20290;-69
2023/12/06 05:00:08;;;;;;;0.70;0.70;;;;;;;6.39;87.77;94318.75;5089118;28;20186;-70
2023/12/06 05:02:34;;;;;;;1.10;1.10;;;;;;;6.19;88.76;94320.50;5088938;28;20906;-70
2023/12/06 05:05:00;;;;;;;1.77;1.67;;;;;;;6.22;89.01;94311.47;5089085;28;20275;-69
2023/12/06 05:07:25;;;;;;;0.57;0.57;;;;;;;6.26;89.03;94313.47;5088829;28;20188;-70
2023/12/06 05:09:51;;;;;;;0.40;0.40;;;;;;;6.44;88.82;94313.72;5088711;28;20595;-70
2023/12/06 05:12:16;;;;;;;0.40;0.40;;;;;;;6.36;88.68;94308.66;5086270;28;20255;-70
2023/12/06 05:14:43;;;;;;;0.80;0.80;;;;;;;6.40;88.61;94312.47;5087339;28;20174;-69
2023/12/06 05:17:08;;;;;;;3.30;2.93;;;;;;;6.39;89.06;94316.13;5094443;28;20177;-69
2023/12/06 05:19:34;;;;;;;0.60;0.60;;;;;;;6.39;89.15;94307.47;5109166;28;20169;-69
2023/12/06 05:22:00;;;;;;;1.60;1.03;;;;;;;6.39;89.26;94308.28;5108008;28;20630;-69
2023/12/06 05:24:25;;;;;;;0.40;0.40;;;;;;;6.27;89.89;94302.03;5108882;28;20165;-69
2023/12/06 05:26:51;;;;;;;0.50;0.50;;;;;;;6.38;89.78;94313.72;5108879;28;20188;-69
2023/12/06 05:29:17;;;;;;;2.00;1.50;;;;;;;6.34;89.80;94308.06;5109154;28;20198;-69
2023/12/06 05:31:42;;;;;;;0.50;0.50;;;;;;;6.37;90.20;94310.28;5109077;28;20195;-70
2023/12/06 05:34:07;;;;;;;1.03;1.03;;;;;;;6.28;90.32;94298.41;5095332;28;20170;-70
2023/12/06 05:36:33;;;;;;;0.87;0.87;;;;;;;6.29;90.53;94307.06;5092434;28;20166;-70
2023/12/06 05:38:58;;;;;;;0.60;0.60;;;;;;;6.30;90.35;94301.63;5092538;28;20177;-70
2023/12/06 05:41:24;;;;;;;1.37;1.27;;;;;;;6.28;90.95;94306.25;5092312;28;20909;-70
2023/12/06 05:43:50;;;;;;;1.13;1.00;;;;;;;6.27;91.39;94304.63;5092223;28;20595;-70
2023/12/06 05:46:15;;;;;;;0.93;0.93;;;;;;;6.38;91.22;94306.66;5091795;28;20177;-70
2023/12/06 05:48:41;;;;;;;0.40;0.40;;;;;;;6.46;90.78;94303.06;5092332;28;20260;-69
2023/12/06 05:51:06;;;;;;;0.50;0.50;;;;;;;6.41;91.09;94301.03;5091954;28;20189;-69
2023/12/06 05:53:32;;;;;;;0.40;0.40;;;;;;;6.38;91.07;94301.44;5092098;28;20193;-69
2023/12/06 05:55:57;;;;;;;0.93;0.93;;;;;;;6.45;90.89;94306.69;5091983;28;20169;-68
2023/12/06 05:58:23;;;;;;;8.10;1.10;;;;;;;6.43;91.18;94301.63;5091850;28;20170;-69
2023/12/06 06:00:48;;;;;;;1.07;0.97;;;;;;;6.54;90.84;94305.47;5091836;28;20176;-69
2023/12/06 06:03:14;;;;;;;0.60;0.60;;;;;;;6.42;91.58;94307.06;5090847;28;20178;-69
2023/12/06 06:05:39;;;;;;;0.63;0.63;;;;;;;6.40;91.61;94299.41;5090910;28;20736;-68
2023/12/06 06:08:05;;;;;;;1.07;1.07;;;;;;;6.37;91.97;94310.28;5090910;28;20176;-68
2023/12/06 06:10:30;;;;;;;0.90;0.90;;;;;;;6.26;92.18;94284.72;5090757;28;20216;-68
2023/12/06 06:12:56;;;;;;;1.93;1.83;;;;;;;6.37;92.70;94320.75;5090945;28;20276;-68
2023/12/06 06:15:21;;;;;;;1.33;1.23;;;;;;;6.43;93.03;94316.53;5091266;28;21052;-68
2023/12/06 06:17:47;;;;;;;3.60;0.70;;;;;;;6.54;93.03;94312.53;5091143;28;20535;-68
2023/12/06 06:20:12;;;;;;;5.77;1.70;;;;;;;6.54;93.18;94307.28;5091576;28;20204;-68
2023/12/06 06:22:38;;;;;;;0.60;0.60;;;;;;;6.50;93.67;94319.13;5090448;28;20174;-68
2023/12/06 06:25:04;;;;;;;0.60;0.60;;;;;;;6.53;93.82;94323.97;5091196;28;20257;-68
2023/12/06 06:27:29;;;;;;;0.50;0.50;;;;;;;6.57;93.47;94322.59;5111875;28;20710;-68
2023/12/06 06:29:55;;;;;;;0.47;0.47;;;;;;;6.47;94.06;94316.94;5111713;28;20180;-68
2023/12/06 06:32:20;;;;;;;0.67;0.50;;;;;;;6.47;94.49;94319.56;5111836;28;20197;-68
2023/12/06 06:34:46;;;;;;;1.70;1.60;;;;;;;6.44;94.36;94320.75;5111865;28;20642;-68
2023/12/06 06:37:11;;;;;;;0.77;0.77;;;;;;;6.36;94.64;94315.72;5111508;28;20555;-67
2023/12/06 06:39:38;;;;;;;0.40;0.40;;;;;;;6.46;95.01;94317.94;5112108;28;20260;-67
2023/12/06 06:42:04;;;;;;;3.20;1.47;;;;;;;6.49;95.16;94322.78;5111505;28;20259;-67
2023/12/06 06:44:30;;;;;;;1.97;1.83;;;;;;;6.46;95.09;94315.31;5111600;28;20169;-67
2023/12/06 06:46:56;;;;;;;1.13;1.03;;;;;;;6.47;95.21;94311.72;5111318;28;20165;-67
2023/12/06 06:49:21;;;;;;;0.67;0.67;;;;;;;6.46;95.77;94318.75;5093102;28;20528;-67
2023/12/06 06:51:46;;;;;;;0.47;0.47;;;;;;;6.56;95.74;94310.53;5111306;28;20232;-67
2023/12/06 06:54:12;;;;;;;0.40;0.40;;;;;;;6.61;95.24;94316.75;5110130;28;20173;-68
2023/12/06 06:56:38;;;;;;;1.47;1.33;;;;;;;6.54;94.78;94299.44;5111174;28;20179;-68
2023/12/06 06:59:03;;;;;;;0.63;0.63;;;;;;;6.67;95.13;94321.16;5111071;28;20173;-68
2023/12/06 07:01:29;;;;;;;0.43;0.43;;;;;;;6.76;94.51;94324.41;5111098;28;20643;-68
2023/12/06 07:03:54;;;;;;;0.93;0.93;;;;;;;6.68;94.10;94306.28;5111072;28;20177;-68
2023/12/06 07:06:20;;;;;;;1.17;1.17;;;;;;;6.64;93.71;94308.53;5097764;27;20178;-69
2023/12/06 07:08:46;;;;;;;1.30;1.20;;;;;;;6.59;93.74;94312.72;5090597;28;20204;-69
2023/12/06 07:11:12;;;;;;;3.30;1.23;;;;;;;6.69;94.26;94316.56;5090219;28;20220;-69
2023/12/06 07:13:38;;;;;;;0.87;0.87;;;;;;;6.74;94.04;94321.19;5088918;28;20639;-69
2023/12/06 07:16:04;;;;;;;0.70;0.70;;;;;;;6.79;93.93;94321.38;5088797;28;20627;-69
2023/12/06 07:18:31;;;;;;;0.53;0.53;;;;;;;6.79;93.49;94326.63;5090537;28;20196;-69
2023/12/06 07:21:00;;;;;;;1.03;1.03;;;;;;;6.79;93.08;94332.66;5090297;28;20174;-69
2023/12/06 07:23:26;;;;;;;0.53;0.53;;;;;;;6.66;93.23;94330.03;5090283;28;20170;-69
2023/12/06 07:25:53;;;;;;;2.73;2.40;;;;;;;6.58;94.43;94316.34;5090214;28;20238;-69
2023/12/06 07:28:18;;;;;;;1.73;1.27;;;;;;;6.59;94.44;94325.78;5089238;28;20169;-69
2023/12/06 07:30:44;;;;;;;1.37;1.00;;;;;;;6.62;94.89;94339.28;5090326;28;20190;-69
2023/12/06 07:33:10;;;;;;;3.73;0.87;;;;;;;6.66;94.33;94326.63;5090150;28;20718;-69
2023/12/06 07:35:35;;;;;;;0.97;0.97;;;;;;;6.70;94.23;94330.44;5089853;28;20180;-69
2023/12/06 07:38:01;;;;;;;1.90;1.50;;;;;;;6.67;94.19;94330.81;5090162;28;20256;-69
2023/12/06 07:40:26;;;;;;;0.67;0.67;;;;;;;6.75;94.53;94343.72;5090318;28;20177;-69
2023/12/06 07:42:52;;;;;;;0.90;0.90;;;;;;;6.69;94.14;94313.94;5090235;28;20273;-69
2023/12/06 07:45:17;;;;;;;0.67;0.67;;;;;;;6.76;94.04;94311.31;5090317;28;20584;-69
2023/12/06 07:47:43;;;;;;;2.33;2.13;;;;;;;6.74;94.33;94335.09;5090252;28;20174;-69
2023/12/06 07:50:09;;;;;;;4.27;3.00;;;;;;;6.68;94.79;94329.81;5089992;28;20584;-68
2023/12/06 07:52:35;;;;;;;0.43;0.43;;;;;;;6.72;95.25;94325.81;5088985;28;20635;-69
2023/12/06 07:55:02;;;;;;;0.87;0.87;;;;;;;6.82;94.97;94334.09;5089954;28;20230;-69
2023/12/06 07:57:28;;;;;;;1.20;1.20;;;;;;;6.90;94.63;94330.47;5089376;28;20561;-69
2023/12/06 07:59:55;;;;;;;0.50;0.50;;;;;;;6.90;94.41;94336.50;5089995;28;20283;-69
2023/12/06 08:02:21;;;;;;;0.47;0.47;;;;;;;6.88;94.70;94327.22;5089917;28;20230;-69
2023/12/06 08:04:46;;;;;;;2.40;1.73;;;;;;;6.81;94.42;94328.03;5089324;28;20173;-69
2023/12/06 08:07:12;;;;;;;0.60;0.60;;;;;;;6.80;94.65;94323.00;5089689;28;20192;-68
2023/12/06 08:09:39;;;;;;;1.20;1.20;;;;;;;6.93;94.69;94323.00;5088798;28;20217;-68
2023/12/06 08:12:07;;;;;;;0.80;0.80;;;;;;;7.04;94.26;94332.06;5089072;28;20198;-69
2023/12/06 08:14:32;;;;;;;0.80;0.80;;;;;;;6.93;94.86;94336.06;5089865;28;20173;-69
2023/12/06 08:16:58;;;;;;;1.27;1.10;;;;;;;6.89;94.68;94328.84;5089825;28;20188;-69
2023/12/06 08:19:23;;;;;;;1.00;1.00;;;;;;;6.73;94.65;94314.34;5089802;28;20573;-69
2023/12/06 08:21:49;;;;;;;4.80;2.80;;;;;;;6.78;94.92;94314.56;5089804;28;20180;-69
2023/12/06 08:24:15;;;;;;;48.17;41.53;;;;;;;6.81;95.29;94333.28;5089658;28;20177;-69
2023/12/06 08:26:42;;;;;;;5.20;4.00;;;;;;;6.74;94.74;94323.81;5089575;28;20685;-68
2023/12/06 08:29:07;;;;;;;1.50;1.40;;;;;;;6.75;95.77;94335.84;5089762;28;20528;-68
2023/12/06 08:31:33;;;;;;;0.50;0.50;;;;;;;6.78;95.65;94330.25;5088515;28;20263;-69
2023/12/06 08:33:58;;;;;;;66.67;6.60;;;;;;;6.79;95.26;94334.47;5089953;28;20193;-69
2023/12/06 08:36:24;;;;;;;1.80;1.43;;;;;;;6.87;95.13;94341.31;5089688;28;20266;-69
2023/12/06 08:38:50;;;;;;;72.70;6.27;;;;;;;6.74;95.80;94329.03;5089601;28;20209;-68
2023/12/06 08:41:16;;;;;;;1.20;1.17;;;;;;;6.67;96.05;94330.81;5089667;28;20648;-68
2023/12/06 08:43:41;;;;;;;0.97;0.97;;;;;;;6.70;96.00;94333.06;5089614;28;20556;-68
2023/12/06 08:46:07;;;;;;;3.57;2.70;;;;;;;6.65;96.45;94325.00;5089790;28;20192;-68
2023/12/06 08:48:33;;;;;;;4.27;3.13;;;;;;;6.65;96.37;94325.00;5089722;28;20176;-68
2023/12/06 08:50:59;;;;;;;1.23;1.10;;;;;;;6.72;96.51;94324.00;5089420;28;20292;-68
2023/12/06 08:53:24;;;;;;;47.13;3.07;;;;;;;6.85;96.49;94331.03;5089339;28;20174;-68
2023/12/06 08:55:49;;;;;;;5.53;2.13;;;;;;;6.90;95.92;94328.66;5089455;28;20174;-68
2023/12/06 08:58:15;;;;;;;0.80;0.77;;;;;;;6.86;96.25;94319.56;5089695;28;20169;-67
2023/12/06 09:00:40;;;;;;;5.20;1.93;;;;;;;6.82;96.04;94328.84;5089586;28;20184;-68
2023/12/06 09:03:06;;;;;;;3.40;1.87;;;;;;;6.76;96.80;94322.59;5088848;28;20797;-68
2023/12/06 09:05:31;;;;;;;1.97;1.67;;;;;;;6.77;96.84;94320.78;5089294;28;20257;-67
2023/12/06 09:07:57;;;;;;;0.80;0.80;;;;;;;6.83;97.18;94315.53;5087536;28;20187;-68
2023/12/06 09:10:23;;;;;;;0.77;0.77;;;;;;;6.83;96.55;94315.53;5091507;28;20279;-67
2023/12/06 09:12:48;;;;;;;0.80;0.80;;;;;;;6.86;96.42;94303.88;5093290;28;20243;-67
2023/12/06 09:15:15;;;;;;;1.90;1.17;;;;;;;6.84;96.43;94305.88;5093116;28;20174;-68
2023/12/06 09:17:41;;;;;;;2.00;1.90;;;;;;;6.68;97.27;94304.47;5093077;28;20178;-68
2023/12/06 09:20:07;;;;;;;189.90;24.57;;;;;;;6.74;97.02;94301.09;5093319;28;20703;-67
2023/12/06 09:22:33;;;;;;;1.33;1.17;;;;;;;6.73;97.01;94293.44;5093062;28;20635;-69
2023/12/06 09:24:58;;;;;;;1.03;0.93;;;;;;;6.73;97.31;94280.34;5093038;28;20176;-69
2023/12/06 09:27:24;;;;;;;1.13;1.13;;;;;;;6.74;97.29;94293.25;5092866;28;20631;-68
2023/12/06 09:29:49;;;;;;;1.27;1.27;;;;;;;6.84;97.23;94287.56;5093150;28;20262;-69
2023/12/06 09:32:15;;;;;;;1.90;1.67;;;;;;;6.85;97.43;94294.41;5092832;28;20262;-68
2023/12/06 09:34:41;;;;;;;3.93;3.27;;;;;;;6.80;97.19;94281.97;5088495;28;20193;-68
2023/12/06 09:37:08;;;;;;;0.67;0.67;;;;;;;6.89;96.84;94287.78;5091809;28;20178;-67
2023/12/06 09:39:33;;;;;;;5.23;4.77;;;;;;;6.84;96.85;94277.13;5090190;28;20181;-68
2023/12/06 09:41:59;;;;;;;104.20;43.47;;;;;;;6.79;97.10;94280.34;5091080;28;20235;-68
2023/12/06 09:44:25;;;;;;;1.23;1.17;;;;;;;6.62;97.50;94249.56;5091682;28;20197;-68
2023/12/06 09:46:53;;;;;;;13.23;8.63;;;;;;;6.71;97.40;94253.59;5091391;28;20251;-68
2023/12/06 09:49:19;;;;;;;5.40;1.90;;;;;;;6.95;97.52;94271.28;5090950;28;20295;-67
2023/12/06 09:51:44;;;;;;;0.90;0.90;;;;;;;6.94;96.10;94253.97;5091411;28;20684;-68
2023/12/06 09:54:10;;;;;;;1.63;1.20;;;;;;;7.14;96.31;94270.47;5091172;28;20704;-68
2023/12/06 09:56:35;;;;;;;1.00;1.00;;;;;;;6.97;95.17;94244.91;5090741;28;20178;-69
2023/12/06 09:59:02;;;;;;;1.27;1.17;;;;;;;7.09;95.48;94262.41;5091504;28;20177;-68
2023/12/06 10:01:27;;;;;;;0.93;0.93;;;;;;;7.14;96.17;94267.03;5091157;28;20227;-69
2023/12/06 10:03:53;;;;;;;1.03;1.03;;;;;;;7.09;95.77;94236.22;5090743;28;20185;-69
2023/12/06 10:06:18;;;;;;;0.83;0.83;;;;;;;7.16;95.11;94271.06;5091085;28;20192;-69
2023/12/06 10:08:50;;;;;;;1.13;1.00;;;;;;;7.21;94.93;94265.22;5090701;28;20188;-67
2023/12/06 10:11:15;;;;;;;1.20;1.20;;;;;;;7.31;94.82;94255.13;5090677;28;20309;-68
2023/12/06 10:13:41;;;;;;;0.57;0.57;;;;;;;7.31;95.05;94255.13;5091025;28;20252;-68
2023/12/06 10:16:14;;;;;;;0.33;0.33;;;;;;;7.37;95.16;94238.59;5091433;28;20264;-68
2023/12/06 10:18:40;;;;;;;4.33;1.37;;;;;;;7.51;94.33;94247.22;5091719;28;20178;-68
2023/12/06 10:21:07;;;;;;;1.13;1.13;;;;;;;7.47;94.28;94256.47;5091201;28;20186;-68
2023/12/06 10:23:32;;;;;;;1.83;1.73;;;;;;;7.41;93.93;94236.38;5091732;28;20254;-68
2023/12/06 10:25:58;;;;;;;0.40;0.40;;;;;;;7.48;94.09;94245.81;5092286;28;20966;-68
2023/12/06 10:28:23;;;;;;;1.23;1.07;;;;;;;7.45;93.53;94230.50;5091609;28;20239;-69
2023/12/06 10:31:05;;;;;;;1.93;1.57;;;;;;;7.55;93.43;94251.00;5090965;28;20270;-68
2023/12/06 10:33:31;;;;;;;0.40;0.40;;;;;;;7.46;93.41;94242.59;5090197;28;20178;-69
2023/12/06 10:35:59;;;;;;;1.10;1.10;;;;;;;7.44;93.78;94233.31;5090239;28;20178;-69
2023/12/06 10:38:28;;;;;;;2.43;1.47;;;;;;;7.42;93.73;94233.53;5091392;28;20178;-69
2023/12/06 10:41:00;;;;;;;1.33;1.23;;;;;;;7.47;93.81;94235.53;5091773;28;20184;-69
2023/12/06 10:43:29;;;;;;;0.57;0.57;;;;;;;7.58;93.66;94234.91;5091244;28;20181;-67
2023/12/06 10:45:55;;;;;;;1.93;1.40;;;;;;;7.66;93.25;94228.63;5091389;28;20288;-68
2023/12/06 10:48:21;;;;;;;1.03;0.93;;;;;;;7.68;93.14;94227.41;5091419;28;20527;-68
2023/12/06 10:50:49;;;;;;;0.40;0.40;;;;;;;7.70;93.83;94220.13;5091129;28;20202;-68
2023/12/06 10:53:17;;;;;;;0.60;0.60;;;;;;;7.74;92.73;94207.41;5091294;28;20166;-68
2023/12/06 10:55:43;;;;;;;0.60;0.60;;;;;;;7.86;92.42;94222.28;5091295;28;20220;-68
2023/12/06 10:58:09;;;;;;;0.80;0.80;;;;;;;7.77;91.65;94231.38;5091265;28;20177;-68
2023/12/06 11:00:35;;;;;;;0.50;0.50;;;;;;;7.76;91.19;94221.13;5091005;28;20178;-68
2023/12/06 11:03:01;;;;;;;0.60;0.60;;;;;;;7.74;90.88;94223.13;5090574;28;20185;-68
2023/12/06 11:05:29;;;;;;;347.77;17.17;;;;;;;7.56;90.29;94218.56;5090113;28;20201;-68
2023/12/06 11:08:27;;;;;;;0.40;0.40;;;;;;;7.70;90.68;94220.13;5090218;28;20256;-68
2023/12/06 11:11:43;;;;;;;469.20;24.87;;;;;;;7.58;91.53;94209.50;5089088;28;20221;-68
2023/12/06 11:14:58;;;;;;;0.87;0.87;;;;;;;7.72;91.63;94219.91;5045362;28;20577;-68
2023/12/06 11:18:07;;;;;;;425.70;22.27;;;;;;;7.58;92.23;94224.41;5088959;28;20287;-69
2023/12/06 11:20:33;;;;;;;161.40;6.20;;;;;;;7.35;92.50;94214.41;5087304;28;20177;-69
2023/12/06 11:22:59;;;;;;;0.40;0.40;;;;;;;7.52;93.31;94220.03;5090677;28;20245;-69
2023/12/06 11:25:25;;;;;;;0.40;0.40;;;;;;;7.69;93.12;94215.91;5090563;28;20681;-69
2023/12/06 11:27:53;;;;;;;0.40;0.40;;;;;;;7.75;92.40;94215.06;5088867;28;20181;-69
2023/12/06 11:30:19;;;;;;;0.77;0.77;;;;;;;7.73;91.94;94206.63;5090524;28;20177;-69
2023/12/06 11:32:45;;;;;;;0.40;0.40;;;;;;;7.89;91.27;94215.78;5089693;28;20260;-69
2023/12/06 11:35:11;;;;;;;3.40;1.77;;;;;;;7.71;90.94;94211.25;5090643;28;20243;-68
2023/12/06 11:37:37;;;;;;;2.30;0.60;;;;;;;7.60;91.64;94206.69;5090612;28;20178;-69